sensor_id;sensor_type;location;lat;lon;timestamp;P1;durP1;ratioP1;P2;durP2;ratioP2
32533;SDS011;18973;48.580;8.912;2022-12-31T00:02:19;0.40;;;0.40;;
32533;SDS011;18973;48.580;8.912;2022-12-31T00:04:45;0.30;;;0.30;;
32533;SDS011;18973;48.580;8.912;2022-12-31T00:07:11;0.47;;;0.47;;
32533;SDS011;18973;48.580;8.912;2022-12-31T00:09:36;0.47;;;0.47;;
32533;SDS011;18973;48.580;8.912;2022-12-31T00:12:02;0.50;;;0.50;;
32533;SDS011;18973;48.580;8.912;2022-12-31T00:14:28;0.35;;;0.35;;
32533;SDS011;18973;48.580;8.912;2022-12-31T00:16:53;0.50;;;0.50;;
32533;SDS011;18973;48.580;8.912;2022-12-31T00:19:19;0.40;;;0.40;;
32533;SDS011;18973;48.580;8.912;2022-12-31T00:21:45;0.40;;;0.40;;
32533;SDS011;18973;48.580;8.912;2022-12-31T00:24:10;0.40;;;0.40;;
32533;SDS011;18973;48.580;8.912;2022-12-31T00:26:37;0.40;;;0.40;;
32533;SDS011;18973;48.580;8.912;2022-12-31T00:29:03;0.50;;;0.50;;
32533;SDS011;18973;48.580;8.912;2022-12-31T00:31:30;0.60;;;0.60;;
32533;SDS011;18973;48.580;8.912;2022-12-31T00:34:00;0.60;;;0.60;;
32533;SDS011;18973;48.580;8.912;2022-12-31T00:36:27;1.13;;;0.80;;
32533;SDS011;18973;48.580;8.912;2022-12-31T00:38:56;0.40;;;0.40;;
32533;SDS011;18973;48.580;8.912;2022-12-31T00:41:23;0.60;;;0.60;;
32533;SDS011;18973;48.580;8.912;2022-12-31T00:43:49;0.40;;;0.40;;
32533;SDS011;18973;48.580;8.912;2022-12-31T00:46:15;0.40;;;0.40;;
32533;SDS011;18973;48.580;8.912;2022-12-31T00:48:41;0.45;;;0.45;;
32533;SDS011;18973;48.580;8.912;2022-12-31T00:51:09;0.40;;;0.40;;
32533;SDS011;18973;48.580;8.912;2022-12-31T00:53:36;2.85;;;0.75;;
32533;SDS011;18973;48.580;8.912;2022-12-31T00:56:06;0.65;;;0.65;;
32533;SDS011;18973;48.580;8.912;2022-12-31T00:58:37;0.52;;;0.52;;
32533;SDS011;18973;48.580;8.912;2022-12-31T01:03:57;0.40;;;0.40;;
32533;SDS011;18973;48.580;8.912;2022-12-31T01:06:25;0.40;;;0.40;;
32533;SDS011;18973;48.580;8.912;2022-12-31T01:08:51;0.40;;;0.40;;
32533;SDS011;18973;48.580;8.912;2022-12-31T01:11:17;0.40;;;0.40;;
32533;SDS011;18973;48.580;8.912;2022-12-31T01:13:44;2.38;;;0.50;;
32533;SDS011;18973;48.580;8.912;2022-12-31T01:16:11;0.30;;;0.30;;
32533;SDS011;18973;48.580;8.912;2022-12-31T01:18:38;0.50;;;0.50;;
32533;SDS011;18973;48.580;8.912;2022-12-31T01:21:05;0.40;;;0.40;;
32533;SDS011;18973;48.580;8.912;2022-12-31T01:23:33;0.40;;;0.40;;
32533;SDS011;18973;48.580;8.912;2022-12-31T01:25:59;0.40;;;0.40;;
32533;SDS011;18973;48.580;8.912;2022-12-31T01:28:26;0.28;;;0.28;;
32533;SDS011;18973;48.580;8.912;2022-12-31T01:30:52;0.38;;;0.38;;
32533;SDS011;18973;48.580;8.912;2022-12-31T01:33:18;0.50;;;0.50;;
32533;SDS011;18973;48.580;8.912;2022-12-31T01:35:44;3.80;;;0.82;;
32533;SDS011;18973;48.580;8.912;2022-12-31T01:38:10;0.40;;;0.40;;
32533;SDS011;18973;48.580;8.912;2022-12-31T01:40:36;0.30;;;0.30;;
32533;SDS011;18973;48.580;8.912;2022-12-31T01:43:05;0.40;;;0.40;;
32533;SDS011;18973;48.580;8.912;2022-12-31T01:45:39;0.50;;;0.50;;
32533;SDS011;18973;48.580;8.912;2022-12-31T01:48:06;0.50;;;0.50;;
32533;SDS011;18973;48.580;8.912;2022-12-31T01:50:35;0.40;;;0.40;;
32533;SDS011;18973;48.580;8.912;2022-12-31T01:53:03;2.65;;;1.60;;
32533;SDS011;18973;48.580;8.912;2022-12-31T01:55:54;0.60;;;0.60;;
32533;SDS011;18973;48.580;8.912;2022-12-31T01:58:24;0.30;;;0.30;;
32533;SDS011;18973;48.580;8.912;2022-12-31T02:00:54;0.40;;;0.40;;
32533;SDS011;18973;48.580;8.912;2022-12-31T02:03:23;0.30;;;0.30;;
32533;SDS011;18973;48.580;8.912;2022-12-31T02:06:00;26.02;;;1.60;;
32533;SDS011;18973;48.580;8.912;2022-12-31T02:08:30;0.30;;;0.30;;
32533;SDS011;18973;48.580;8.912;2022-12-31T02:10:56;0.80;;;0.60;;
32533;SDS011;18973;48.580;8.912;2022-12-31T02:13:21;0.40;;;0.40;;
32533;SDS011;18973;48.580;8.912;2022-12-31T02:16:05;0.30;;;0.30;;
32533;SDS011;18973;48.580;8.912;2022-12-31T02:18:45;0.30;;;0.30;;
32533;SDS011;18973;48.580;8.912;2022-12-31T02:27:09;0.43;;;0.43;;
32533;SDS011;18973;48.580;8.912;2022-12-31T02:35:50;0.30;;;0.30;;
32533;SDS011;18973;48.580;8.912;2022-12-31T02:38:23;0.30;;;0.30;;
32533;SDS011;18973;48.580;8.912;2022-12-31T02:40:56;0.40;;;0.40;;
32533;SDS011;18973;48.580;8.912;2022-12-31T02:43:22;0.40;;;0.40;;
32533;SDS011;18973;48.580;8.912;2022-12-31T02:46:03;0.68;;;0.60;;
32533;SDS011;18973;48.580;8.912;2022-12-31T02:48:55;0.50;;;0.50;;
32533;SDS011;18973;48.580;8.912;2022-12-31T02:51:33;0.90;;;0.50;;
32533;SDS011;18973;48.580;8.912;2022-12-31T02:54:28;0.50;;;0.50;;
32533;SDS011;18973;48.580;8.912;2022-12-31T02:59:32;0.30;;;0.30;;
32533;SDS011;18973;48.580;8.912;2022-12-31T03:02:22;0.43;;;0.43;;
32533;SDS011;18973;48.580;8.912;2022-12-31T03:04:51;0.40;;;0.40;;
32533;SDS011;18973;48.580;8.912;2022-12-31T03:07:25;0.30;;;0.30;;
32533;SDS011;18973;48.580;8.912;2022-12-31T03:09:52;0.30;;;0.30;;
32533;SDS011;18973;48.580;8.912;2022-12-31T03:12:19;0.20;;;0.20;;
32533;SDS011;18973;48.580;8.912;2022-12-31T03:15:06;0.52;;;0.52;;
32533;SDS011;18973;48.580;8.912;2022-12-31T03:20:21;0.30;;;0.30;;
32533;SDS011;18973;48.580;8.912;2022-12-31T03:23:08;0.30;;;0.30;;
32533;SDS011;18973;48.580;8.912;2022-12-31T03:25:36;0.25;;;0.25;;
32533;SDS011;18973;48.580;8.912;2022-12-31T03:28:05;0.38;;;0.38;;
32533;SDS011;18973;48.580;8.912;2022-12-31T03:30:33;0.20;;;0.20;;
32533;SDS011;18973;48.580;8.912;2022-12-31T03:33:00;0.30;;;0.30;;
32533;SDS011;18973;48.580;8.912;2022-12-31T03:35:26;0.50;;;0.50;;
32533;SDS011;18973;48.580;8.912;2022-12-31T03:37:53;0.40;;;0.40;;
32533;SDS011;18973;48.580;8.912;2022-12-31T03:40:21;0.38;;;0.38;;
32533;SDS011;18973;48.580;8.912;2022-12-31T03:42:48;0.30;;;0.30;;
32533;SDS011;18973;48.580;8.912;2022-12-31T03:45:14;0.50;;;0.50;;
32533;SDS011;18973;48.580;8.912;2022-12-31T03:47:40;0.30;;;0.30;;
32533;SDS011;18973;48.580;8.912;2022-12-31T03:50:06;1.75;;;0.38;;
32533;SDS011;18973;48.580;8.912;2022-12-31T03:52:33;0.30;;;0.30;;
32533;SDS011;18973;48.580;8.912;2022-12-31T03:54:59;0.30;;;0.30;;
32533;SDS011;18973;48.580;8.912;2022-12-31T03:57:26;0.40;;;0.40;;
32533;SDS011;18973;48.580;8.912;2022-12-31T03:59:52;0.55;;;0.40;;
32533;SDS011;18973;48.580;8.912;2022-12-31T04:02:17;0.55;;;0.50;;
32533;SDS011;18973;48.580;8.912;2022-12-31T04:04:43;0.40;;;0.40;;
32533;SDS011;18973;48.580;8.912;2022-12-31T04:07:09;1.10;;;0.40;;
32533;SDS011;18973;48.580;8.912;2022-12-31T04:09:34;0.40;;;0.40;;
32533;SDS011;18973;48.580;8.912;2022-12-31T04:12:00;0.40;;;0.40;;
32533;SDS011;18973;48.580;8.912;2022-12-31T04:14:26;0.15;;;0.15;;
32533;SDS011;18973;48.580;8.912;2022-12-31T04:16:51;0.30;;;0.30;;
32533;SDS011;18973;48.580;8.912;2022-12-31T04:19:17;0.22;;;0.22;;
32533;SDS011;18973;48.580;8.912;2022-12-31T04:21:43;0.68;;;0.50;;
32533;SDS011;18973;48.580;8.912;2022-12-31T04:24:08;0.30;;;0.30;;
32533;SDS011;18973;48.580;8.912;2022-12-31T04:26:35;0.20;;;0.20;;
32533;SDS011;18973;48.580;8.912;2022-12-31T04:29:01;0.30;;;0.30;;
32533;SDS011;18973;48.580;8.912;2022-12-31T04:31:27;0.20;;;0.20;;
32533;SDS011;18973;48.580;8.912;2022-12-31T04:33:52;0.20;;;0.20;;
32533;SDS011;18973;48.580;8.912;2022-12-31T04:36:18;0.30;;;0.30;;
32533;SDS011;18973;48.580;8.912;2022-12-31T04:38:44;0.20;;;0.20;;
32533;SDS011;18973;48.580;8.912;2022-12-31T04:41:10;0.30;;;0.30;;
32533;SDS011;18973;48.580;8.912;2022-12-31T04:43:48;0.30;;;0.30;;
32533;SDS011;18973;48.580;8.912;2022-12-31T04:46:16;0.20;;;0.20;;
32533;SDS011;18973;48.580;8.912;2022-12-31T04:48:44;0.70;;;0.35;;
32533;SDS011;18973;48.580;8.912;2022-12-31T04:51:10;0.30;;;0.30;;
32533;SDS011;18973;48.580;8.912;2022-12-31T04:53:37;0.30;;;0.30;;
32533;SDS011;18973;48.580;8.912;2022-12-31T04:56:03;0.60;;;0.38;;
32533;SDS011;18973;48.580;8.912;2022-12-31T04:58:30;1.10;;;0.38;;
32533;SDS011;18973;48.580;8.912;2022-12-31T05:00:56;0.30;;;0.30;;
32533;SDS011;18973;48.580;8.912;2022-12-31T05:03:22;0.52;;;0.52;;
32533;SDS011;18973;48.580;8.912;2022-12-31T05:05:49;0.40;;;0.40;;
32533;SDS011;18973;48.580;8.912;2022-12-31T05:08:16;0.25;;;0.25;;
32533;SDS011;18973;48.580;8.912;2022-12-31T05:10:43;0.30;;;0.30;;
32533;SDS011;18973;48.580;8.912;2022-12-31T05:13:10;0.40;;;0.40;;
32533;SDS011;18973;48.580;8.912;2022-12-31T05:15:37;0.43;;;0.43;;
32533;SDS011;18973;48.580;8.912;2022-12-31T05:18:03;0.40;;;0.40;;
32533;SDS011;18973;48.580;8.912;2022-12-31T05:20:28;0.57;;;0.30;;
32533;SDS011;18973;48.580;8.912;2022-12-31T05:22:54;0.40;;;0.40;;
32533;SDS011;18973;48.580;8.912;2022-12-31T05:25:20;0.30;;;0.30;;
32533;SDS011;18973;48.580;8.912;2022-12-31T05:27:46;0.30;;;0.30;;
32533;SDS011;18973;48.580;8.912;2022-12-31T05:30:12;0.30;;;0.30;;
32533;SDS011;18973;48.580;8.912;2022-12-31T05:32:38;0.38;;;0.38;;
32533;SDS011;18973;48.580;8.912;2022-12-31T05:35:04;0.32;;;0.30;;
32533;SDS011;18973;48.580;8.912;2022-12-31T05:37:31;0.85;;;0.40;;
32533;SDS011;18973;48.580;8.912;2022-12-31T05:39:57;0.30;;;0.30;;
32533;SDS011;18973;48.580;8.912;2022-12-31T05:42:23;0.43;;;0.38;;
32533;SDS011;18973;48.580;8.912;2022-12-31T05:44:49;0.30;;;0.30;;
32533;SDS011;18973;48.580;8.912;2022-12-31T05:47:15;0.30;;;0.30;;
32533;SDS011;18973;48.580;8.912;2022-12-31T05:49:41;0.30;;;0.30;;
32533;SDS011;18973;48.580;8.912;2022-12-31T05:52:07;0.30;;;0.30;;
32533;SDS011;18973;48.580;8.912;2022-12-31T05:54:32;0.20;;;0.20;;
32533;SDS011;18973;48.580;8.912;2022-12-31T05:56:58;0.30;;;0.30;;
32533;SDS011;18973;48.580;8.912;2022-12-31T05:59:24;0.55;;;0.55;;
32533;SDS011;18973;48.580;8.912;2022-12-31T06:01:50;0.47;;;0.47;;
32533;SDS011;18973;48.580;8.912;2022-12-31T06:04:15;0.40;;;0.40;;
32533;SDS011;18973;48.580;8.912;2022-12-31T06:06:41;0.40;;;0.40;;
32533;SDS011;18973;48.580;8.912;2022-12-31T06:09:07;0.40;;;0.40;;
32533;SDS011;18973;48.580;8.912;2022-12-31T06:11:33;0.30;;;0.30;;
32533;SDS011;18973;48.580;8.912;2022-12-31T06:13:59;0.57;;;0.30;;
32533;SDS011;18973;48.580;8.912;2022-12-31T06:16:25;0.30;;;0.30;;
32533;SDS011;18973;48.580;8.912;2022-12-31T06:18:51;0.75;;;0.43;;
32533;SDS011;18973;48.580;8.912;2022-12-31T06:21:17;0.30;;;0.30;;
32533;SDS011;18973;48.580;8.912;2022-12-31T06:23:44;0.50;;;0.50;;
32533;SDS011;18973;48.580;8.912;2022-12-31T06:26:10;0.57;;;0.57;;
32533;SDS011;18973;48.580;8.912;2022-12-31T06:28:36;0.70;;;0.70;;
32533;SDS011;18973;48.580;8.912;2022-12-31T06:31:02;0.50;;;0.50;;
32533;SDS011;18973;48.580;8.912;2022-12-31T06:33:30;0.30;;;0.30;;
32533;SDS011;18973;48.580;8.912;2022-12-31T06:35:56;0.40;;;0.40;;
32533;SDS011;18973;48.580;8.912;2022-12-31T06:38:23;0.47;;;0.47;;
32533;SDS011;18973;48.580;8.912;2022-12-31T06:40:50;0.80;;;0.80;;
32533;SDS011;18973;48.580;8.912;2022-12-31T06:43:16;1.92;;;0.95;;
32533;SDS011;18973;48.580;8.912;2022-12-31T06:45:41;0.70;;;0.70;;
32533;SDS011;18973;48.580;8.912;2022-12-31T06:48:07;0.55;;;0.55;;
32533;SDS011;18973;48.580;8.912;2022-12-31T06:50:33;0.47;;;0.40;;
32533;SDS011;18973;48.580;8.912;2022-12-31T06:52:58;0.35;;;0.35;;
32533;SDS011;18973;48.580;8.912;2022-12-31T06:55:24;0.65;;;0.65;;
32533;SDS011;18973;48.580;8.912;2022-12-31T06:57:51;1.10;;;0.70;;
32533;SDS011;18973;48.580;8.912;2022-12-31T07:00:17;0.40;;;0.40;;
32533;SDS011;18973;48.580;8.912;2022-12-31T07:05:34;1.37;;;0.53;;
32533;SDS011;18973;48.580;8.912;2022-12-31T07:11:07;0.40;;;0.40;;
32533;SDS011;18973;48.580;8.912;2022-12-31T07:21:45;0.63;;;0.63;;
32533;SDS011;18973;48.580;8.912;2022-12-31T07:24:13;0.40;;;0.40;;
32533;SDS011;18973;48.580;8.912;2022-12-31T07:40:55;0.40;;;0.40;;
32533;SDS011;18973;48.580;8.912;2022-12-31T07:43:33;0.40;;;0.40;;
32533;SDS011;18973;48.580;8.912;2022-12-31T07:48:33;0.73;;;0.50;;
32533;SDS011;18973;48.580;8.912;2022-12-31T07:50:58;0.85;;;0.32;;
32533;SDS011;18973;48.580;8.912;2022-12-31T07:53:25;0.30;;;0.30;;
32533;SDS011;18973;48.580;8.912;2022-12-31T07:55:58;0.98;;;0.57;;
32533;SDS011;18973;48.580;8.912;2022-12-31T07:58:28;0.70;;;0.50;;
32533;SDS011;18973;48.580;8.912;2022-12-31T08:04:23;0.65;;;0.47;;
32533;SDS011;18973;48.580;8.912;2022-12-31T08:09:38;0.32;;;0.20;;
32533;SDS011;18973;48.580;8.912;2022-12-31T08:12:06;0.32;;;0.30;;
32533;SDS011;18973;48.580;8.912;2022-12-31T08:14:32;0.20;;;0.20;;
32533;SDS011;18973;48.580;8.912;2022-12-31T08:17:08;0.32;;;0.32;;
32533;SDS011;18973;48.580;8.912;2022-12-31T08:19:36;0.10;;;0.10;;
32533;SDS011;18973;48.580;8.912;2022-12-31T08:22:37;0.20;;;0.20;;
32533;SDS011;18973;48.580;8.912;2022-12-31T08:31:13;0.82;;;0.20;;
32533;SDS011;18973;48.580;8.912;2022-12-31T08:33:34;0.20;;;0.20;;
32533;SDS011;18973;48.580;8.912;2022-12-31T08:46:54;1.15;;;0.30;;
32533;SDS011;18973;48.580;8.912;2022-12-31T08:49:31;0.30;;;0.30;;
32533;SDS011;18973;48.580;8.912;2022-12-31T08:51:59;0.50;;;0.22;;
32533;SDS011;18973;48.580;8.912;2022-12-31T08:54:26;0.35;;;0.35;;
32533;SDS011;18973;48.580;8.912;2022-12-31T08:59:46;0.40;;;0.40;;
32533;SDS011;18973;48.580;8.912;2022-12-31T09:10:33;0.20;;;0.20;;
32533;SDS011;18973;48.580;8.912;2022-12-31T09:16:16;0.30;;;0.30;;
32533;SDS011;18973;48.580;8.912;2022-12-31T09:18:49;0.13;;;0.13;;
32533;SDS011;18973;48.580;8.912;2022-12-31T09:21:14;0.43;;;0.40;;
32533;SDS011;18973;48.580;8.912;2022-12-31T09:23:41;0.20;;;0.20;;
32533;SDS011;18973;48.580;8.912;2022-12-31T09:32:14;0.28;;;0.10;;
32533;SDS011;18973;48.580;8.912;2022-12-31T09:34:55;0.17;;;0.13;;
32533;SDS011;18973;48.580;8.912;2022-12-31T09:37:44;0.13;;;0.10;;
32533;SDS011;18973;48.580;8.912;2022-12-31T09:53:55;1.17;;;0.75;;
32533;SDS011;18973;48.580;8.912;2022-12-31T09:56:34;0.90;;;0.22;;
32533;SDS011;18973;48.580;8.912;2022-12-31T09:59:05;0.20;;;0.20;;
32533;SDS011;18973;48.580;8.912;2022-12-31T10:09:19;0.75;;;0.17;;
32533;SDS011;18973;48.580;8.912;2022-12-31T10:20:23;0.20;;;0.20;;
32533;SDS011;18973;48.580;8.912;2022-12-31T10:31:19;0.15;;;0.15;;
32533;SDS011;18973;48.580;8.912;2022-12-31T10:34:22;0.10;;;0.10;;
32533;SDS011;18973;48.580;8.912;2022-12-31T10:37:08;0.15;;;0.10;;
32533;SDS011;18973;48.580;8.912;2022-12-31T10:39:53;0.35;;;0.22;;
32533;SDS011;18973;48.580;8.912;2022-12-31T10:48:03;0.25;;;0.10;;
32533;SDS011;18973;48.580;8.912;2022-12-31T11:21:18;1.45;;;0.17;;
32533;SDS011;18973;48.580;8.912;2022-12-31T11:26:52;0.53;;;0.10;;
32533;SDS011;18973;48.580;8.912;2022-12-31T11:32:21;0.28;;;0.20;;
32533;SDS011;18973;48.580;8.912;2022-12-31T11:40:00;0.00;;;0.00;;
32533;SDS011;18973;48.580;8.912;2022-12-31T11:58:50;0.10;;;0.10;;
32533;SDS011;18973;48.580;8.912;2022-12-31T12:04:18;0.20;;;0.20;;
32533;SDS011;18973;48.580;8.912;2022-12-31T12:06:43;0.10;;;0.10;;
32533;SDS011;18973;48.580;8.912;2022-12-31T12:09:13;1.55;;;0.20;;
32533;SDS011;18973;48.580;8.912;2022-12-31T12:12:04;0.10;;;0.10;;
32533;SDS011;18973;48.580;8.912;2022-12-31T12:14:31;0.10;;;0.10;;
32533;SDS011;18973;48.580;8.912;2022-12-31T12:17:02;0.38;;;0.30;;
32533;SDS011;18973;48.580;8.912;2022-12-31T12:19:31;0.08;;;0.08;;
32533;SDS011;18973;48.580;8.912;2022-12-31T12:22:07;0.05;;;0.05;;
32533;SDS011;18973;48.580;8.912;2022-12-31T12:24:35;0.00;;;0.00;;
32533;SDS011;18973;48.580;8.912;2022-12-31T12:27:01;0.30;;;0.00;;
32533;SDS011;18973;48.580;8.912;2022-12-31T12:29:28;0.20;;;0.20;;
32533;SDS011;18973;48.580;8.912;2022-12-31T12:36:55;0.10;;;0.10;;
32533;SDS011;18973;48.580;8.912;2022-12-31T12:39:39;0.22;;;0.10;;
32533;SDS011;18973;48.580;8.912;2022-12-31T12:42:12;0.10;;;0.10;;
32533;SDS011;18973;48.580;8.912;2022-12-31T12:44:39;0.10;;;0.10;;
32533;SDS011;18973;48.580;8.912;2022-12-31T12:47:07;0.00;;;0.00;;
32533;SDS011;18973;48.580;8.912;2022-12-31T12:49:48;0.00;;;0.00;;
32533;SDS011;18973;48.580;8.912;2022-12-31T12:57:29;0.28;;;0.10;;
32533;SDS011;18973;48.580;8.912;2022-12-31T13:00:17;0.73;;;0.30;;
32533;SDS011;18973;48.580;8.912;2022-12-31T13:19:19;0.10;;;0.10;;
32533;SDS011;18973;48.580;8.912;2022-12-31T13:21:52;0.30;;;0.15;;
32533;SDS011;18973;48.580;8.912;2022-12-31T13:29:50;0.22;;;0.13;;
32533;SDS011;18973;48.580;8.912;2022-12-31T13:32:20;0.10;;;0.10;;
32533;SDS011;18973;48.580;8.912;2022-12-31T13:34:54;5.63;;;0.20;;
32533;SDS011;18973;48.580;8.912;2022-12-31T13:37:29;0.35;;;0.20;;
32533;SDS011;18973;48.580;8.912;2022-12-31T13:40:02;0.30;;;0.15;;
32533;SDS011;18973;48.580;8.912;2022-12-31T13:42:58;0.20;;;0.10;;
32533;SDS011;18973;48.580;8.912;2022-12-31T13:45:29;0.13;;;0.10;;
32533;SDS011;18973;48.580;8.912;2022-12-31T13:48:03;0.00;;;0.00;;
32533;SDS011;18973;48.580;8.912;2022-12-31T13:50:41;1.55;;;0.70;;
32533;SDS011;18973;48.580;8.912;2022-12-31T13:56:02;0.20;;;0.20;;
32533;SDS011;18973;48.580;8.912;2022-12-31T14:07:01;0.30;;;0.10;;
32533;SDS011;18973;48.580;8.912;2022-12-31T14:09:26;0.68;;;0.30;;
32533;SDS011;18973;48.580;8.912;2022-12-31T14:15:02;0.10;;;0.10;;
32533;SDS011;18973;48.580;8.912;2022-12-31T14:17:47;0.52;;;0.35;;
32533;SDS011;18973;48.580;8.912;2022-12-31T14:20:28;0.13;;;0.13;;
32533;SDS011;18973;48.580;8.912;2022-12-31T14:25:52;0.30;;;0.13;;
32533;SDS011;18973;48.580;8.912;2022-12-31T14:31:19;0.10;;;0.10;;
32533;SDS011;18973;48.580;8.912;2022-12-31T14:34:10;0.88;;;0.55;;
32533;SDS011;18973;48.580;8.912;2022-12-31T14:36:44;2.33;;;0.35;;
32533;SDS011;18973;48.580;8.912;2022-12-31T14:39:37;0.40;;;0.40;;
32533;SDS011;18973;48.580;8.912;2022-12-31T14:42:37;0.43;;;0.30;;
32533;SDS011;18973;48.580;8.912;2022-12-31T14:45:27;1.38;;;0.20;;
32533;SDS011;18973;48.580;8.912;2022-12-31T14:51:02;0.10;;;0.10;;
32533;SDS011;18973;48.580;8.912;2022-12-31T14:53:29;0.47;;;0.28;;
32533;SDS011;18973;48.580;8.912;2022-12-31T14:55:59;0.32;;;0.32;;
32533;SDS011;18973;48.580;8.912;2022-12-31T14:58:55;1.00;;;0.30;;
32533;SDS011;18973;48.580;8.912;2022-12-31T15:01:22;1.33;;;0.60;;
32533;SDS011;18973;48.580;8.912;2022-12-31T15:03:50;0.65;;;0.38;;
32533;SDS011;18973;48.580;8.912;2022-12-31T15:09:05;0.40;;;0.40;;
32533;SDS011;18973;48.580;8.912;2022-12-31T15:17:10;0.20;;;0.20;;
32533;SDS011;18973;48.580;8.912;2022-12-31T15:20:00;0.20;;;0.20;;
32533;SDS011;18973;48.580;8.912;2022-12-31T15:22:46;0.30;;;0.30;;
32533;SDS011;18973;48.580;8.912;2022-12-31T15:25:32;0.50;;;0.40;;
32533;SDS011;18973;48.580;8.912;2022-12-31T15:28:01;0.63;;;0.52;;
32533;SDS011;18973;48.580;8.912;2022-12-31T15:33:03;1.55;;;0.60;;
32533;SDS011;18973;48.580;8.912;2022-12-31T15:35:44;2.15;;;1.23;;
32533;SDS011;18973;48.580;8.912;2022-12-31T15:41:10;26.15;;;13.68;;
32533;SDS011;18973;48.580;8.912;2022-12-31T15:43:53;43.00;;;22.27;;
32533;SDS011;18973;48.580;8.912;2022-12-31T15:46:27;37.78;;;19.50;;
32533;SDS011;18973;48.580;8.912;2022-12-31T15:49:11;4.03;;;1.55;;
32533;SDS011;18973;48.580;8.912;2022-12-31T15:52:04;2.47;;;1.70;;
32533;SDS011;18973;48.580;8.912;2022-12-31T15:54:40;0.65;;;0.40;;
32533;SDS011;18973;48.580;8.912;2022-12-31T15:57:14;3.80;;;3.10;;
32533;SDS011;18973;48.580;8.912;2022-12-31T15:59:47;2.17;;;1.23;;
32533;SDS011;18973;48.580;8.912;2022-12-31T16:02:17;1.23;;;1.13;;
32533;SDS011;18973;48.580;8.912;2022-12-31T16:04:51;0.30;;;0.30;;
32533;SDS011;18973;48.580;8.912;2022-12-31T16:07:18;0.65;;;0.35;;
32533;SDS011;18973;48.580;8.912;2022-12-31T16:09:48;0.57;;;0.57;;
32533;SDS011;18973;48.580;8.912;2022-12-31T16:12:26;16.90;;;10.60;;
32533;SDS011;18973;48.580;8.912;2022-12-31T16:14:55;2.92;;;2.03;;
32533;SDS011;18973;48.580;8.912;2022-12-31T16:17:26;3.42;;;1.52;;
32533;SDS011;18973;48.580;8.912;2022-12-31T16:19:57;1.70;;;1.20;;
32533;SDS011;18973;48.580;8.912;2022-12-31T16:22:25;3.45;;;2.22;;
32533;SDS011;18973;48.580;8.912;2022-12-31T16:24:56;3.53;;;2.13;;
32533;SDS011;18973;48.580;8.912;2022-12-31T16:27:25;1.42;;;0.90;;
32533;SDS011;18973;48.580;8.912;2022-12-31T16:32:35;1.27;;;0.82;;
32533;SDS011;18973;48.580;8.912;2022-12-31T16:35:02;1.15;;;0.80;;
32533;SDS011;18973;48.580;8.912;2022-12-31T16:37:43;2.45;;;1.52;;
32533;SDS011;18973;48.580;8.912;2022-12-31T16:40:17;1.98;;;0.80;;
32533;SDS011;18973;48.580;8.912;2022-12-31T16:42:45;2.38;;;0.95;;
32533;SDS011;18973;48.580;8.912;2022-12-31T16:45:21;0.55;;;0.55;;
32533;SDS011;18973;48.580;8.912;2022-12-31T16:47:52;1.20;;;1.00;;
32533;SDS011;18973;48.580;8.912;2022-12-31T16:50:22;1.35;;;0.73;;
32533;SDS011;18973;48.580;8.912;2022-12-31T16:52:49;0.90;;;0.73;;
32533;SDS011;18973;48.580;8.912;2022-12-31T16:55:27;1.30;;;1.20;;
32533;SDS011;18973;48.580;8.912;2022-12-31T16:57:56;2.40;;;1.60;;
32533;SDS011;18973;48.580;8.912;2022-12-31T17:00:25;2.25;;;1.48;;
32533;SDS011;18973;48.580;8.912;2022-12-31T17:05:33;8.07;;;4.57;;
32533;SDS011;18973;48.580;8.912;2022-12-31T17:08:27;4.18;;;2.72;;
32533;SDS011;18973;48.580;8.912;2022-12-31T17:16:32;4.22;;;2.58;;
32533;SDS011;18973;48.580;8.912;2022-12-31T17:19:04;10.48;;;6.10;;
32533;SDS011;18973;48.580;8.912;2022-12-31T17:21:30;7.28;;;3.67;;
32533;SDS011;18973;48.580;8.912;2022-12-31T17:24:00;5.60;;;4.18;;
32533;SDS011;18973;48.580;8.912;2022-12-31T17:26:30;4.50;;;3.15;;
32533;SDS011;18973;48.580;8.912;2022-12-31T17:28:58;5.22;;;3.25;;
32533;SDS011;18973;48.580;8.912;2022-12-31T17:31:38;5.60;;;4.25;;
32533;SDS011;18973;48.580;8.912;2022-12-31T17:39:25;11.70;;;5.22;;
32533;SDS011;18973;48.580;8.912;2022-12-31T17:41:51;6.10;;;3.25;;
32533;SDS011;18973;48.580;8.912;2022-12-31T17:44:21;6.32;;;4.32;;
32533;SDS011;18973;48.580;8.912;2022-12-31T17:46:50;2.97;;;2.67;;
32533;SDS011;18973;48.580;8.912;2022-12-31T17:49:18;3.25;;;2.95;;
32533;SDS011;18973;48.580;8.912;2022-12-31T17:51:51;3.80;;;3.05;;
32533;SDS011;18973;48.580;8.912;2022-12-31T17:54:17;1.95;;;1.42;;
32533;SDS011;18973;48.580;8.912;2022-12-31T17:56:44;3.08;;;1.70;;
32533;SDS011;18973;48.580;8.912;2022-12-31T17:59:12;8.20;;;3.45;;
32533;SDS011;18973;48.580;8.912;2022-12-31T18:01:46;3.03;;;1.52;;
32533;SDS011;18973;48.580;8.912;2022-12-31T18:04:12;1.73;;;1.33;;
32533;SDS011;18973;48.580;8.912;2022-12-31T18:06:39;1.65;;;1.48;;
32533;SDS011;18973;48.580;8.912;2022-12-31T18:09:05;2.33;;;2.10;;
32533;SDS011;18973;48.580;8.912;2022-12-31T18:11:32;2.22;;;1.40;;
32533;SDS011;18973;48.580;8.912;2022-12-31T18:13:59;2.03;;;1.55;;
32533;SDS011;18973;48.580;8.912;2022-12-31T18:16:24;3.67;;;2.22;;
32533;SDS011;18973;48.580;8.912;2022-12-31T18:18:50;2.60;;;1.60;;
32533;SDS011;18973;48.580;8.912;2022-12-31T18:21:21;2.45;;;1.60;;
32533;SDS011;18973;48.580;8.912;2022-12-31T18:23:59;5.32;;;2.72;;
32533;SDS011;18973;48.580;8.912;2022-12-31T18:26:27;4.18;;;3.30;;
32533;SDS011;18973;48.580;8.912;2022-12-31T18:28:59;1.88;;;1.75;;
32533;SDS011;18973;48.580;8.912;2022-12-31T18:31:34;3.15;;;2.20;;
32533;SDS011;18973;48.580;8.912;2022-12-31T18:34:00;38.95;;;18.67;;
32533;SDS011;18973;48.580;8.912;2022-12-31T18:36:26;3.67;;;2.17;;
32533;SDS011;18973;48.580;8.912;2022-12-31T18:38:52;8.57;;;5.15;;
32533;SDS011;18973;48.580;8.912;2022-12-31T18:41:19;10.77;;;5.78;;
32533;SDS011;18973;48.580;8.912;2022-12-31T18:43:52;25.00;;;10.67;;
32533;SDS011;18973;48.580;8.912;2022-12-31T18:46:20;7.65;;;4.65;;
32533;SDS011;18973;48.580;8.912;2022-12-31T18:48:47;1.88;;;1.77;;
32533;SDS011;18973;48.580;8.912;2022-12-31T18:51:14;5.35;;;2.92;;
32533;SDS011;18973;48.580;8.912;2022-12-31T18:53:44;1.15;;;1.05;;
32533;SDS011;18973;48.580;8.912;2022-12-31T18:56:11;6.30;;;4.03;;
32533;SDS011;18973;48.580;8.912;2022-12-31T18:58:39;9.93;;;5.80;;
32533;SDS011;18973;48.580;8.912;2022-12-31T19:01:08;5.82;;;4.47;;
32533;SDS011;18973;48.580;8.912;2022-12-31T19:03:45;5.18;;;3.72;;
32533;SDS011;18973;48.580;8.912;2022-12-31T19:06:11;4.78;;;3.58;;
32533;SDS011;18973;48.580;8.912;2022-12-31T19:08:36;5.57;;;3.60;;
32533;SDS011;18973;48.580;8.912;2022-12-31T19:11:02;3.70;;;2.28;;
32533;SDS011;18973;48.580;8.912;2022-12-31T19:13:28;4.57;;;2.50;;
32533;SDS011;18973;48.580;8.912;2022-12-31T19:15:54;4.80;;;2.58;;
32533;SDS011;18973;48.580;8.912;2022-12-31T19:18:19;4.85;;;3.50;;
32533;SDS011;18973;48.580;8.912;2022-12-31T19:20:45;7.07;;;4.03;;
32533;SDS011;18973;48.580;8.912;2022-12-31T19:23:15;5.88;;;3.13;;
32533;SDS011;18973;48.580;8.912;2022-12-31T19:25:43;8.30;;;4.93;;
32533;SDS011;18973;48.580;8.912;2022-12-31T19:28:14;7.32;;;4.07;;
32533;SDS011;18973;48.580;8.912;2022-12-31T19:30:47;6.68;;;3.72;;
32533;SDS011;18973;48.580;8.912;2022-12-31T19:33:14;4.40;;;3.05;;
32533;SDS011;18973;48.580;8.912;2022-12-31T19:35:40;6.82;;;3.63;;
32533;SDS011;18973;48.580;8.912;2022-12-31T19:38:22;21.67;;;8.88;;
32533;SDS011;18973;48.580;8.912;2022-12-31T19:40:50;7.53;;;3.45;;
32533;SDS011;18973;48.580;8.912;2022-12-31T19:43:17;7.35;;;4.20;;
32533;SDS011;18973;48.580;8.912;2022-12-31T19:45:45;15.65;;;10.07;;
32533;SDS011;18973;48.580;8.912;2022-12-31T19:48:12;5.40;;;3.58;;
32533;SDS011;18973;48.580;8.912;2022-12-31T19:50:40;15.27;;;6.63;;
32533;SDS011;18973;48.580;8.912;2022-12-31T19:53:10;11.45;;;5.45;;